sensor_id;sensor_type;location;lat;lon;timestamp;temperature;humidity
45311;SHT31;68264;51.540;5.854;2024-01-07T00:09:48;2.4;89.3
45311;SHT31;68264;51.540;5.854;2024-01-07T00:23:47;2.4;88.9
45311;SHT31;68264;51.540;5.854;2024-01-07T00:37:46;2.3;89.1
45311;SHT31;68264;51.540;5.854;2024-01-07T00:52:14;2.5;89.3
45311;SHT31;68264;51.540;5.854;2024-01-07T01:06:33;2.5;89.4
45311;SHT31;68264;51.540;5.854;2024-01-07T01:21:01;2.4;90.0
45311;SHT31;68264;51.540;5.854;2024-01-07T01:35:50;2.4;90.9
45311;SHT31;68264;51.540;5.854;2024-01-07T01:51:10;2.5;91.1
45311;SHT31;68264;51.540;5.854;2024-01-07T02:06:39;2.5;91.3
45311;SHT31;68264;51.540;5.854;2024-01-07T02:20:58;2.5;91.2
45311;SHT31;68264;51.540;5.854;2024-01-07T02:34:57;2.4;91.0
45311;SHT31;68264;51.540;5.854;2024-01-07T02:49:26;2.5;91.0
45311;SHT31;68264;51.540;5.854;2024-01-07T03:03:45;2.4;90.7
45311;SHT31;68264;51.540;5.854;2024-01-07T03:17:44;2.3;90.5
45311;SHT31;68264;51.540;5.854;2024-01-07T03:31:43;2.2;90.7
45311;SHT31;68264;51.540;5.854;2024-01-07T03:45:42;2.2;90.5
45311;SHT31;68264;51.540;5.854;2024-01-07T04:00:10;2.3;90.5
45311;SHT31;68264;51.540;5.854;2024-01-07T04:14:30;2.2;89.9
45311;SHT31;68264;51.540;5.854;2024-01-07T04:28:58;2.1;89.8
45311;SHT31;68264;51.540;5.854;2024-01-07T04:43:17;2.0;89.8
45311;SHT31;68264;51.540;5.854;2024-01-07T04:57:45;2.0;89.7
45311;SHT31;68264;51.540;5.854;2024-01-07T05:13:38;1.9;88.8
45311;SHT31;68264;51.540;5.854;2024-01-07T05:29:08;1.9;88.5
45311;SHT31;68264;51.540;5.854;2024-01-07T05:43:07;1.8;88.4
45311;SHT31;68264;51.540;5.854;2024-01-07T05:57:35;1.7;88.1
45311;SHT31;68264;51.540;5.854;2024-01-07T06:11:54;1.7;87.5
45311;SHT31;68264;51.540;5.854;2024-01-07T06:26:23;1.7;87.7
45311;SHT31;68264;51.540;5.854;2024-01-07T06:40:42;1.7;86.9
45311;SHT31;68264;51.540;5.854;2024-01-07T06:54:41;1.7;86.8
45311;SHT31;68264;51.540;5.854;2024-01-07T07:09:09;1.8;86.6
45311;SHT31;68264;51.540;5.854;2024-01-07T07:25:02;1.8;86.9
45311;SHT31;68264;51.540;5.854;2024-01-07T07:41:01;1.6;86.3
45311;SHT31;68264;51.540;5.854;2024-01-07T07:55:20;1.6;86.2
45311;SHT31;68264;51.540;5.854;2024-01-07T08:09:19;1.4;86.0
45311;SHT31;68264;51.540;5.854;2024-01-07T08:23:18;1.4;86.2
45311;SHT31;68264;51.540;5.854;2024-01-07T08:37:46;1.3;86.1
45311;SHT31;68264;51.540;5.854;2024-01-07T08:52:35;1.3;85.9
45311;SHT31;68264;51.540;5.854;2024-01-07T09:06:54;1.2;85.6
45311;SHT31;68264;51.540;5.854;2024-01-07T09:21:22;1.2;85.5
45311;SHT31;68264;51.540;5.854;2024-01-07T09:35:42;1.2;85.1
45311;SHT31;68264;51.540;5.854;2024-01-07T09:49:41;1.2;84.5
45311;SHT31;68264;51.540;5.854;2024-01-07T10:03:40;1.2;83.9
45311;SHT31;68264;51.540;5.854;2024-01-07T10:18:08;1.3;84.4
45311;SHT31;68264;51.540;5.854;2024-01-07T10:32:56;1.3;83.7
45311;SHT31;68264;51.540;5.854;2024-01-07T10:47:16;1.3;83.1
45311;SHT31;68264;51.540;5.854;2024-01-07T11:01:15;1.3;83.2
45311;SHT31;68264;51.540;5.854;2024-01-07T11:17:19;1.6;82.0
45311;SHT31;68264;51.540;5.854;2024-01-07T11:33:19;1.4;81.6
45311;SHT31;68264;51.540;5.854;2024-01-07T11:47:18;1.4;82.3
45311;SHT31;68264;51.540;5.854;2024-01-07T12:01:46;1.6;80.6
45311;SHT31;68264;51.540;5.854;2024-01-07T12:16:06;1.2;78.4
45311;SHT31;68264;51.540;5.854;2024-01-07T12:30:05;1.1;77.9
45311;SHT31;68264;51.540;5.854;2024-01-07T12:44:04;1.3;77.8
45311;SHT31;68264;51.540;5.854;2024-01-07T12:58:03;1.2;78.3
45311;SHT31;68264;51.540;5.854;2024-01-07T13:12:02;1.3;76.3
45311;SHT31;68264;51.540;5.854;2024-01-07T13:26:01;2.0;73.7
45311;SHT31;68264;51.540;5.854;2024-01-07T13:40:29;2.1;72.2
45311;SHT31;68264;51.540;5.854;2024-01-07T13:54:48;1.8;72.3
45311;SHT31;68264;51.540;5.854;2024-01-07T14:08:48;1.2;72.7
45311;SHT31;68264;51.540;5.854;2024-01-07T14:22:47;1.1;74.0
45311;SHT31;68264;51.540;5.854;2024-01-07T14:37:15;0.9;73.0
45311;SHT31;68264;51.540;5.854;2024-01-07T14:51:34;0.7;73.2
45311;SHT31;68264;51.540;5.854;2024-01-07T15:05:33;0.7;73.6
45311;SHT31;68264;51.540;5.854;2024-01-07T15:19:32;0.5;74.1
45311;SHT31;68264;51.540;5.854;2024-01-07T15:33:31;0.3;75.1
45311;SHT31;68264;51.540;5.854;2024-01-07T15:48:32;0.3;74.2
45311;SHT31;68264;51.540;5.854;2024-01-07T16:04:01;0.1;75.1
45311;SHT31;68264;51.540;5.854;2024-01-07T16:33:08;-0.1;76.8
45311;SHT31;68264;51.540;5.854;2024-01-07T16:47:07;-0.1;76.6
45311;SHT31;68264;51.540;5.854;2024-01-07T17:01:06;-0.1;76.5
45311;SHT31;68264;51.540;5.854;2024-01-07T17:15:35;-0.1;77.1
45311;SHT31;68264;51.540;5.854;2024-01-07T17:30:23;-0.2;77.9
45311;SHT31;68264;51.540;5.854;2024-01-07T17:44:42;-0.3;78.7
45311;SHT31;68264;51.540;5.854;2024-01-07T17:58:41;-0.5;79.1
45311;SHT31;68264;51.540;5.854;2024-01-07T18:14:14;-0.5;79.9
45311;SHT31;68264;51.540;5.854;2024-01-07T18:30:13;-0.8;81.0
45311;SHT31;68264;51.540;5.854;2024-01-07T18:44:32;-1.0;82.1
45311;SHT31;68264;51.540;5.854;2024-01-07T18:58:31;-1.0;82.9
45311;SHT31;68264;51.540;5.854;2024-01-07T19:12:30;-1.0;83.6
45311;SHT31;68264;51.540;5.854;2024-01-07T19:26:58;-1.0;83.8
45311;SHT31;68264;51.540;5.854;2024-01-07T19:41:18;-1.1;83.9
45311;SHT31;68264;51.540;5.854;2024-01-07T19:55:17;-1.1;84.5
45311;SHT31;68264;51.540;5.854;2024-01-07T20:09:45;-1.2;84.6
45311;SHT31;68264;51.540;5.854;2024-01-07T20:24:33;-1.2;85.0
45311;SHT31;68264;51.540;5.854;2024-01-07T20:38:53;-1.3;85.3
45311;SHT31;68264;51.540;5.854;2024-01-07T20:52:52;-1.4;85.5
45311;SHT31;68264;51.540;5.854;2024-01-07T21:07:52;-1.5;86.1
45311;SHT31;68264;51.540;5.854;2024-01-07T21:22:52;-1.6;86.3
45311;SHT31;68264;51.540;5.854;2024-01-07T21:36:51;-1.6;86.4
45311;SHT31;68264;51.540;5.854;2024-01-07T21:50:50;-1.7;86.5
45311;SHT31;68264;51.540;5.854;2024-01-07T22:04:49;-1.5;86.9
45311;SHT31;68264;51.540;5.854;2024-01-07T22:19:17;-1.2;84.4
45311;SHT31;68264;51.540;5.854;2024-01-07T22:33:36;-1.0;82.3
45311;SHT31;68264;51.540;5.854;2024-01-07T22:47:35;-0.9;80.9
45311;SHT31;68264;51.540;5.854;2024-01-07T23:01:34;-0.9;79.8
45311;SHT31;68264;51.540;5.854;2024-01-07T23:15:33;-0.9;79.4
45311;SHT31;68264;51.540;5.854;2024-01-07T23:29:32;-0.9;79.1
45311;SHT31;68264;51.540;5.854;2024-01-07T23:44:01;-0.9;78.4
45311;SHT31;68264;51.540;5.854;2024-01-07T23:58:20;-1.2;76.1
